Time;durP1;ratioP1;P1;durP2;ratioP2;P2;SDS_P1;SDS_P2;PMS_P1;PMS_P2;Temp;Humidity;BMP_temperature;BMP_pressure;BME280_temperature;BME280_humidity;BME280_pressure;Samples;Min_cycle;Max_cycle;Signal;HPM_P1;HPM_P2
2023/08/25 00:00:36;;;;;;;9.80;7.10;;;31.40;76.50;;;;;;5011643;28;20030;-76
2023/08/25 00:03:03;;;;;;;7.97;7.18;;;31.30;76.30;;;;;;4996741;28;20545;-77
2023/08/25 00:05:29;;;;;;;9.80;7.22;;;31.30;76.40;;;;;;5009066;28;20030;-76
2023/08/25 00:07:54;;;;;;;7.70;6.90;;;31.30;76.50;;;;;;5011291;28;20080;-76
2023/08/25 00:10:22;;;;;;;7.68;6.80;;;31.30;76.50;;;;;;4994629;28;20117;-76
2023/08/25 00:12:49;;;;;;;10.85;7.72;;;31.30;76.70;;;;;;4993639;28;20081;-76
2023/08/25 00:15:14;;;;;;;9.43;7.60;;;31.30;76.60;;;;;;4993513;28;20073;-76
2023/08/25 00:17:40;;;;;;;10.13;7.80;;;31.30;76.70;;;;;;4994332;28;20034;-76
2023/08/25 00:20:10;;;;;;;9.70;7.53;;;31.30;76.90;;;;;;5002071;28;20034;-76
2023/08/25 00:22:36;;;;;;;8.05;6.97;;;31.30;77.00;;;;;;4994187;28;20425;-76
2023/08/25 00:25:03;;;;;;;9.07;7.53;;;31.30;77.20;;;;;;4993024;28;20149;-76
2023/08/25 00:27:28;;;;;;;8.77;7.88;;;31.30;77.50;;;;;;5011834;28;20512;-76
2023/08/25 00:29:54;;;;;;;11.20;8.23;;;31.30;77.80;;;;;;5004399;28;20045;-76
2023/08/25 00:32:20;;;;;;;9.45;7.32;;;31.20;77.80;;;;;;5000981;28;20068;-76
2023/08/25 00:34:45;;;;;;;8.75;7.13;;;31.20;77.80;;;;;;4995811;28;20119;-76
2023/08/25 00:37:11;;;;;;;8.43;7.60;;;31.20;78.00;;;;;;5002220;28;20034;-76
2023/08/25 00:39:38;;;;;;;10.07;7.80;;;31.20;78.20;;;;;;4998141;28;20045;-76
2023/08/25 00:42:04;;;;;;;10.88;8.25;;;31.20;78.30;;;;;;4993049;28;20034;-76
2023/08/25 00:44:30;;;;;;;10.32;7.68;;;31.20;78.50;;;;;;4994735;28;20136;-76
2023/08/25 00:46:56;;;;;;;9.80;7.32;;;31.20;78.50;;;;;;4999318;28;20105;-76
2023/08/25 00:49:23;;;;;;;9.52;7.90;;;31.10;78.20;;;;;;4966675;28;1342170;-80
2023/08/25 00:51:51;;;;;;;10.07;7.82;;;31.10;78.10;;;;;;5000662;28;20030;-80
2023/08/25 00:54:18;;;;;;;9.65;8.32;;;31.10;78.10;;;;;;4976604;28;20023;-81
2023/08/25 00:56:45;;;;;;;10.18;7.82;;;31.10;78.20;;;;;;5001980;28;20501;-80
2023/08/25 00:59:10;;;;;;;9.02;7.47;;;31.10;78.40;;;;;;5004393;28;20533;-81
2023/08/25 01:01:36;;;;;;;8.70;7.55;;;31.10;78.40;;;;;;5010860;28;20034;-80
2023/08/25 01:04:03;;;;;;;8.50;7.65;;;31.00;78.30;;;;;;5010241;28;20054;-80
2023/08/25 01:06:29;;;;;;;11.02;8.43;;;31.00;78.50;;;;;;5004592;28;20403;-80
2023/08/25 01:08:54;;;;;;;11.77;7.97;;;31.10;78.60;;;;;;4993953;28;20027;-80
2023/08/25 01:11:27;;;;;;;12.18;9.13;;;31.00;78.30;;;;;;4993584;28;20042;-80
2023/08/25 01:14:21;;;;;;;13.05;8.88;;;30.90;78.00;;;;;;4994353;28;20039;-80
2023/08/25 01:17:27;;;;;;;9.02;7.82;;;30.80;78.10;;;;;;5007735;28;20475;-80
2023/08/25 01:20:01;;;;;;;12.77;9.00;;;30.70;78.20;;;;;;4993808;28;20023;-80
2023/08/25 01:22:30;;;;;;;13.65;8.55;;;30.60;78.10;;;;;;4993680;28;20126;-80
2023/08/25 01:25:20;;;;;;;9.27;8.35;;;30.50;78.00;;;;;;5008661;28;20025;-81
2023/08/25 01:27:50;;;;;;;11.02;9.18;;;30.50;78.00;;;;;;5001113;28;20036;-80
2023/08/25 01:30:16;;;;;;;10.65;8.68;;;30.50;77.90;;;;;;5006791;28;20062;-80
2023/08/25 01:32:41;;;;;;;9.88;8.65;;;30.60;77.90;;;;;;5008087;28;20101;-80
2023/08/25 01:35:08;;;;;;;10.88;9.20;;;30.60;77.80;;;;;;5007899;28;20038;-81
2023/08/25 01:37:41;;;;;;;9.45;8.35;;;30.60;77.50;;;;;;5008291;28;20483;-80
2023/08/25 01:40:15;;;;;;;12.82;9.75;;;30.50;77.30;;;;;;4993097;28;20031;-80
2023/08/25 01:42:44;;;;;;;11.57;8.73;;;30.50;77.30;;;;;;5003847;28;20037;-80
2023/08/25 01:45:10;;;;;;;11.63;9.40;;;30.50;77.40;;;;;;5004666;28;20019;-76
2023/08/25 01:47:38;;;;;;;11.75;9.65;;;30.30;77.40;;;;;;5004389;28;20052;-76
2023/08/25 01:50:07;;;;;;;14.05;9.27;;;30.30;77.50;;;;;;4998857;28;20064;-76
2023/08/25 01:52:33;;;;;;;10.80;9.43;;;30.30;77.50;;;;;;5012593;28;20073;-76
2023/08/25 01:54:59;;;;;;;15.43;9.45;;;30.40;77.50;;;;;;5013617;28;20021;-76
2023/08/25 01:57:25;;;;;;;12.48;9.65;;;30.40;77.50;;;;;;5014257;28;20451;-76
2023/08/25 01:59:51;;;;;;;10.32;8.35;;;30.30;77.40;;;;;;4998481;28;20038;-76
2023/08/25 02:02:16;;;;;;;11.18;9.50;;;30.40;77.60;;;;;;5002829;28;20026;-76
2023/08/25 02:04:42;;;;;;;11.32;9.90;;;30.40;77.70;;;;;;4998532;28;20033;-76
2023/08/25 02:07:08;;;;;;;13.40;10.00;;;30.40;77.70;;;;;;5012077;28;20034;-76
2023/08/25 02:09:33;;;;;;;11.65;9.25;;;30.40;77.90;;;;;;5012461;28;20038;-75
2023/08/25 02:11:59;;;;;;;11.40;9.35;;;30.40;77.90;;;;;;5015641;28;20041;-76
2023/08/25 02:14:26;;;;;;;10.85;8.98;;;30.30;78.00;;;;;;5008410;28;20030;-76
2023/08/25 02:16:51;;;;;;;12.23;9.68;;;30.30;78.20;;;;;;5014197;28;20065;-76
2023/08/25 02:19:17;;;;;;;13.27;11.02;;;30.30;78.50;;;;;;5014196;28;20062;-76
2023/08/25 02:21:43;;;;;;;13.32;9.27;;;30.30;78.90;;;;;;5014726;28;20034;-76
2023/08/25 02:24:09;;;;;;;13.95;10.15;;;30.20;78.80;;;;;;5010564;28;20030;-76
2023/08/25 02:26:35;;;;;;;16.05;10.35;;;30.20;79.00;;;;;;4997061;28;20403;-76
2023/08/25 02:29:01;;;;;;;12.18;10.07;;;30.10;79.60;;;;;;4996718;28;20034;-76
2023/08/25 02:31:26;;;;;;;11.88;9.32;;;30.10;79.50;;;;;;4996045;28;20109;-76
2023/08/25 02:33:52;;;;;;;11.70;9.50;;;30.00;79.60;;;;;;5003612;28;20470;-76
2023/08/25 02:36:18;;;;;;;12.32;9.55;;;30.00;79.80;;;;;;4996209;28;20037;-76
2023/08/25 02:38:43;;;;;;;10.90;9.23;;;30.00;79.80;;;;;;5004601;28;20030;-76
2023/08/25 02:41:09;;;;;;;9.55;8.63;;;30.00;80.00;;;;;;5007881;28;20038;-76
2023/08/25 02:43:35;;;;;;;11.00;9.90;;;30.00;80.60;;;;;;5013376;28;20030;-77
2023/08/25 02:46:00;;;;;;;14.60;10.38;;;29.90;80.10;;;;;;4978341;28;20407;-75
2023/08/25 02:48:26;;;;;;;9.93;8.93;;;30.00;80.10;;;;;;4998614;28;20038;-76
2023/08/25 02:50:52;;;;;;;11.20;10.02;;;30.00;80.10;;;;;;5004410;28;20517;-76
2023/08/25 02:53:18;;;;;;;11.18;9.15;;;29.90;80.10;;;;;;4995723;28;20109;-76
2023/08/25 02:55:43;;;;;;;11.82;10.23;;;29.90;80.30;;;;;;4968646;28;20030;-76
2023/08/25 02:58:09;;;;;;;14.23;10.40;;;29.80;80.10;;;;;;4996442;28;20035;-76
2023/08/25 03:00:34;;;;;;;10.48;9.48;;;29.80;80.30;;;;;;4998499;28;20541;-76
2023/08/25 03:03:00;;;;;;;10.95;9.20;;;29.80;80.40;;;;;;4997103;28;20091;-76
2023/08/25 03:05:26;;;;;;;11.85;9.98;;;29.80;80.60;;;;;;5066747;22;20066;-76
2023/08/25 03:07:53;;;;;;;14.07;10.45;;;29.80;80.80;;;;;;5007552;28;20026;-76
2023/08/25 03:10:19;;;;;;;12.63;10.63;;;29.80;81.10;;;;;;5009279;28;20564;-76
2023/08/25 03:12:44;;;;;;;14.45;11.65;;;29.80;81.70;;;;;;5007303;28;20022;-76
2023/08/25 03:15:10;;;;;;;13.38;10.52;;;29.70;82.20;;;;;;4982110;28;20470;-76
2023/08/25 03:17:36;;;;;;;12.80;11.38;;;29.70;82.70;;;;;;4995345;28;20034;-76
2023/08/25 03:20:03;;;;;;;12.32;10.38;;;29.60;82.60;;;;;;5012761;28;20042;-76
2023/08/25 03:22:29;;;;;;;12.93;10.98;;;29.60;82.90;;;;;;5012116;28;20034;-76
2023/08/25 03:24:55;;;;;;;11.82;10.00;;;29.60;83.20;;;;;;4985636;28;20030;-76
2023/08/25 03:27:21;;;;;;;12.02;10.57;;;29.70;83.40;;;;;;4994494;28;20026;-76
2023/08/25 03:29:47;;;;;;;11.88;10.68;;;29.60;83.60;;;;;;5013180;28;20462;-76
2023/08/25 03:32:12;;;;;;;12.95;10.88;;;29.60;83.80;;;;;;4995200;28;20092;-76
2023/08/25 03:34:39;;;;;;;13.20;11.23;;;29.60;84.00;;;;;;5012355;28;20108;-76
2023/08/25 03:37:05;;;;;;;14.70;11.80;;;29.60;84.40;;;;;;5012680;28;20041;-76
2023/08/25 03:39:31;;;;;;;12.50;11.25;;;29.60;84.90;;;;;;5003138;28;20053;-76
2023/08/25 03:41:57;;;;;;;15.25;12.95;;;29.50;85.10;;;;;;5003952;28;20034;-76
2023/08/25 03:44:23;;;;;;;14.43;12.00;;;29.50;85.80;;;;;;5011830;28;20351;-76
2023/08/25 03:46:48;;;;;;;12.55;11.30;;;29.40;86.30;;;;;;5010030;28;20094;-76
2023/08/25 03:49:14;;;;;;;13.35;11.25;;;29.40;86.10;;;;;;4976620;28;20433;-76
2023/08/25 03:51:40;;;;;;;14.60;12.32;;;29.40;86.50;;;;;;4994545;28;20065;-76
2023/08/25 03:54:06;;;;;;;14.63;12.35;;;29.40;86.70;;;;;;4996695;28;20057;-76
2023/08/25 03:56:32;;;;;;;14.63;12.02;;;29.50;87.00;;;;;;5012260;28;20026;-76
2023/08/25 03:58:58;;;;;;;13.25;11.95;;;29.50;87.00;;;;;;5011024;28;20070;-76
2023/08/25 04:01:24;;;;;;;13.23;11.80;;;29.40;87.10;;;;;;4995901;28;20057;-76
2023/08/25 04:03:49;;;;;;;14.15;11.65;;;29.50;87.20;;;;;;5014153;28;20496;-76
2023/08/25 04:06:15;;;;;;;16.08;11.23;;;29.40;87.10;;;;;;5009501;28;20045;-76
2023/08/25 04:08:41;;;;;;;13.05;10.55;;;29.40;86.80;;;;;;4995232;28;20030;-76
2023/08/25 04:11:07;;;;;;;14.45;10.48;;;29.30;86.70;;;;;;5004574;28;20544;-76
2023/08/25 04:13:32;;;;;;;13.35;10.27;;;29.30;86.60;;;;;;4994814;28;20038;-76
2023/08/25 04:15:59;;;;;;;12.43;10.30;;;29.30;86.40;;;;;;5005013;28;20518;-75
2023/08/25 04:18:25;;;;;;;11.00;9.90;;;29.30;86.40;;;;;;4994355;28;20038;-75
2023/08/25 04:20:53;;;;;;;11.60;8.43;;;29.20;86.10;;;;;;4993700;28;20383;-75
2023/08/25 04:23:19;;;;;;;14.82;10.13;;;29.20;86.10;;;;;;5012333;28;20025;-75
2023/08/25 04:25:45;;;;;;;12.00;10.63;;;29.20;86.10;;;;;;5005295;28;20578;-76
2023/08/25 04:28:11;;;;;;;11.73;9.23;;;29.10;86.00;;;;;;4977398;28;20037;-80
2023/08/25 04:30:36;;;;;;;11.23;9.10;;;29.10;85.80;;;;;;4998182;28;20021;-79
2023/08/25 04:33:09;;;;;;;11.55;9.02;;;29.10;85.50;;;;;;5012987;28;20061;-79
2023/08/25 04:35:36;;;;;;;16.80;8.98;;;29.00;85.30;;;;;;5002673;28;20058;-80
2023/08/25 04:38:02;;;;;;;10.32;8.35;;;29.00;85.10;;;;;;4987680;28;20411;-79
2023/08/25 04:40:28;;;;;;;11.02;8.50;;;29.10;84.80;;;;;;5013083;28;20026;-80
2023/08/25 04:42:54;;;;;;;14.07;9.57;;;29.10;84.50;;;;;;5004556;28;20034;-81
2023/08/25 04:45:19;;;;;;;14.93;7.88;;;29.10;84.10;;;;;;5004229;28;20076;-80
2023/08/25 04:47:45;;;;;;;11.40;9.20;;;29.00;84.00;;;;;;4995471;28;20034;-80
2023/08/25 04:50:11;;;;;;;11.07;7.68;;;29.00;83.80;;;;;;5012421;28;20049;-80
2023/08/25 04:52:37;;;;;;;7.70;6.90;;;29.00;83.70;;;;;;4993312;28;20498;-81
2023/08/25 04:55:04;;;;;;;8.80;7.47;;;29.00;83.60;;;;;;5010836;28;20018;-80
2023/08/25 04:57:30;;;;;;;13.30;8.20;;;28.90;83.60;;;;;;5003743;28;20038;-80
2023/08/25 04:59:55;;;;;;;10.73;7.93;;;29.00;83.70;;;;;;4993055;28;20034;-79
2023/08/25 05:02:21;;;;;;;8.48;7.43;;;28.90;83.60;;;;;;5004804;28;20116;-80
2023/08/25 05:04:47;;;;;;;9.32;7.70;;;29.00;83.50;;;;;;4976624;28;20030;-80
2023/08/25 05:07:13;;;;;;;10.30;6.78;;;28.90;83.40;;;;;;4993391;28;20039;-80
2023/08/25 05:09:38;;;;;;;8.95;7.07;;;29.00;83.20;;;;;;4993704;28;20097;-79
2023/08/25 05:12:05;;;;;;;9.38;7.43;;;29.00;83.10;;;;;;4994569;28;20117;-80
2023/08/25 05:14:30;;;;;;;10.43;7.70;;;29.00;83.10;;;;;;5012554;28;20014;-80
2023/08/25 05:16:56;;;;;;;8.68;7.40;;;29.00;82.90;;;;;;4994095;28;20451;-81
2023/08/25 05:19:22;;;;;;;10.20;6.72;;;29.10;82.70;;;;;;4996787;28;20046;-80
2023/08/25 05:21:47;;;;;;;7.68;6.85;;;29.10;82.20;;;;;;4993346;28;20037;-80
2023/08/25 05:24:22;;;;;;;9.45;7.53;;;29.10;82.10;;;;;;4993495;28;20077;-80
2023/08/25 05:26:52;;;;;;;9.68;7.20;;;29.10;82.00;;;;;;5010052;28;20029;-80
2023/08/25 05:29:19;;;;;;;8.60;6.68;;;29.10;81.90;;;;;;5004483;28;20036;-81
2023/08/25 05:31:44;;;;;;;7.18;6.35;;;29.10;81.90;;;;;;5016543;28;20092;-80
2023/08/25 05:34:10;;;;;;;10.23;7.25;;;29.10;81.80;;;;;;4998939;28;20038;-82
2023/08/25 05:36:36;;;;;;;8.20;6.28;;;29.10;81.60;;;;;;5013953;28;20079;-83
2023/08/25 05:39:02;;;;;;;10.23;6.65;;;29.00;81.40;;;;;;5000460;28;20033;-82
2023/08/25 05:41:27;;;;;;;9.82;6.90;;;29.00;81.50;;;;;;4997709;28;20133;-77
2023/08/25 05:43:53;;;;;;;11.98;7.80;;;29.00;81.30;;;;;;4990349;28;20038;-77
2023/08/25 05:46:19;;;;;;;7.22;6.25;;;29.10;81.10;;;;;;4996399;28;20033;-82
2023/08/25 05:48:44;;;;;;;10.27;6.65;;;29.00;80.90;;;;;;4977241;28;20073;-81
2023/08/25 05:51:57;;;;;;;11.80;6.70;;;29.10;81.00;;;;;;4999317;28;20474;-80
2023/08/25 05:54:23;;;;;;;10.15;6.13;;;29.10;80.80;;;;;;4996971;28;20120;-78
2023/08/25 05:56:49;;;;;;;8.77;6.10;;;29.10;80.70;;;;;;4979716;28;20444;-82
2023/08/25 05:59:15;;;;;;;8.15;6.07;;;29.10;80.50;;;;;;4994689;28;20022;-77
2023/08/25 06:01:41;;;;;;;8.85;6.70;;;29.10;80.40;;;;;;4993024;28;20029;-78
2023/08/25 06:04:06;;;;;;;11.95;6.32;;;29.10;80.20;;;;;;4983712;28;20023;-76
2023/08/25 06:06:33;;;;;;;15.00;6.35;;;29.10;80.10;;;;;;5007909;28;20076;-78
2023/08/25 06:08:58;;;;;;;7.28;6.05;;;29.10;80.00;;;;;;5005338;28;20033;-82
2023/08/25 06:11:24;;;;;;;8.35;6.38;;;29.10;80.10;;;;;;4999055;28;20038;-83
2023/08/25 06:13:50;;;;;;;13.18;7.20;;;29.10;80.40;;;;;;4995634;28;20125;-84
2023/08/25 06:16:16;;;;;;;9.55;6.90;;;29.10;79.40;;;;;;4994698;28;20394;-84
2023/08/25 06:18:42;;;;;;;13.73;6.45;;;29.10;79.00;;;;;;4995474;28;20042;-83
2023/08/25 06:21:09;;;;;;;6.70;5.28;;;29.10;79.20;;;;;;4994887;28;20479;-77
2023/08/25 06:23:35;;;;;;;7.65;5.60;;;29.10;79.10;;;;;;4991868;28;20034;-76
2023/08/25 06:26:00;;;;;;;8.35;5.50;;;29.10;79.30;;;;;;4990261;28;20030;-77
2023/08/25 06:28:26;;;;;;;11.52;5.65;;;29.10;79.10;;;;;;4994092;28;20022;-76
2023/08/25 06:30:52;;;;;;;6.60;5.60;;;29.10;79.00;;;;;;4976500;28;20026;-83
2023/08/25 06:33:17;;;;;;;8.45;6.22;;;29.10;79.00;;;;;;4995538;28;20081;-83
2023/08/25 06:35:44;;;;;;;8.88;5.65;;;29.20;78.70;;;;;;4996326;28;20042;-82
2023/08/25 06:38:09;;;;;;;7.95;6.20;;;29.20;78.60;;;;;;5008410;28;20026;-82
2023/08/25 06:40:35;;;;;;;11.20;5.35;;;29.20;78.30;;;;;;4999054;28;20035;-83
2023/08/25 06:43:04;;;;;;;7.72;5.10;;;29.20;78.40;;;;;;4993934;28;20026;-82
2023/08/25 06:45:30;;;;;;;7.57;5.78;;;29.30;78.40;;;;;;4995347;28;20032;-83
2023/08/25 06:47:56;;;;;;;8.40;6.25;;;29.40;78.40;;;;;;4987305;28;20379;-82
2023/08/25 06:50:23;;;;;;;9.60;5.57;;;29.40;78.20;;;;;;4977936;28;20192;-82
2023/08/25 06:52:49;;;;;;;6.75;5.32;;;29.40;78.00;;;;;;4984132;28;20390;-77
2023/08/25 06:55:20;;;;;;;7.53;5.50;;;29.50;78.30;;;;;;4994648;28;20085;-75
2023/08/25 06:57:46;;;;;;;12.70;5.50;;;29.60;78.30;;;;;;4994685;28;20041;-77
2023/08/25 07:00:13;;;;;;;9.02;6.03;;;29.60;78.20;;;;;;4996716;28;20068;-78
2023/08/25 07:02:40;;;;;;;8.50;5.85;;;29.70;78.30;;;;;;4995138;28;20030;-78
2023/08/25 07:05:07;;;;;;;7.13;5.55;;;29.70;77.90;;;;;;4994224;28;20042;-78
2023/08/25 07:07:35;;;;;;;8.10;5.68;;;29.80;77.60;;;;;;4992960;28;20080;-78
2023/08/25 07:10:01;;;;;;;20.50;5.82;;;29.80;77.00;;;;;;4994518;28;20026;-78
2023/08/25 07:12:26;;;;;;;26.50;6.53;;;29.90;76.90;;;;;;4997744;28;20038;-77
2023/08/25 07:14:53;;;;;;;13.52;6.38;;;29.90;77.10;;;;;;4994090;28;20043;-77
2023/08/25 07:17:19;;;;;;;6.25;5.10;;;29.90;77.00;;;;;;5006796;28;20053;-77
2023/08/25 07:19:45;;;;;;;49.92;7.65;;;29.90;77.00;;;;;;5014599;28;20462;-77
2023/08/25 07:22:11;;;;;;;11.85;6.00;;;29.90;77.00;;;;;;5014872;28;20026;-77
2023/08/25 07:24:36;;;;;;;15.50;5.72;;;30.00;77.00;;;;;;4997444;28;20035;-78
2023/08/25 07:27:02;;;;;;;9.98;5.50;;;30.00;76.90;;;;;;4993028;28;20493;-77
2023/08/25 07:29:28;;;;;;;9.52;5.35;;;30.10;76.90;;;;;;4982335;28;20037;-77
2023/08/25 07:31:53;;;;;;;13.02;5.72;;;30.20;76.80;;;;;;5009027;28;20038;-77
2023/08/25 07:34:19;;;;;;;8.77;5.18;;;30.20;76.70;;;;;;4994236;28;20034;-77
2023/08/25 07:36:45;;;;;;;11.57;5.70;;;30.30;76.70;;;;;;4978357;28;20023;-83
2023/08/25 07:39:11;;;;;;;6.97;5.15;;;30.30;76.60;;;;;;4994531;28;20038;-82
2023/08/25 07:41:37;;;;;;;10.98;5.28;;;30.40;76.60;;;;;;4994402;28;20053;-84
2023/08/25 07:44:02;;;;;;;9.50;5.63;;;30.40;76.10;;;;;;4994640;28;20057;-83
2023/08/25 07:46:29;;;;;;;12.55;5.80;;;30.40;75.70;;;;;;4994403;28;20030;-84
2023/08/25 07:48:55;;;;;;;7.07;5.22;;;30.50;75.80;;;;;;4994534;28;20414;-84
2023/08/25 07:51:21;;;;;;;7.20;5.43;;;30.50;75.70;;;;;;4994798;28;20038;-85
2023/08/25 07:53:46;;;;;;;9.02;5.20;;;30.70;75.90;;;;;;4994099;28;20086;-80
2023/08/25 07:56:13;;;;;;;8.85;5.60;;;30.70;75.80;;;;;;4989538;28;20038;-80
2023/08/25 07:58:38;;;;;;;14.55;7.30;;;30.80;75.20;;;;;;4993316;28;20511;-80
2023/08/25 08:01:04;;;;;;;7.68;5.10;;;30.80;74.40;;;;;;4992820;28;20034;-80
2023/08/25 08:03:31;;;;;;;6.53;4.72;;;30.90;74.80;;;;;;4993161;28;20370;-80
2023/08/25 08:05:56;;;;;;;9.35;5.20;;;31.00;75.20;;;;;;4989055;28;20360;-78
2023/08/25 08:08:22;;;;;;;10.38;6.10;;;31.00;74.30;;;;;;4991804;28;20037;-79
2023/08/25 08:10:48;;;;;;;9.40;5.80;;;31.10;75.30;;;;;;4991594;28;20022;-81
2023/08/25 08:13:14;;;;;;;7.50;5.47;;;31.20;75.30;;;;;;4988931;28;20050;-80
2023/08/25 08:15:39;;;;;;;7.35;5.30;;;31.30;75.20;;;;;;4993157;28;20443;-82
2023/08/25 08:18:05;;;;;;;7.30;5.35;;;31.40;75.20;;;;;;4994174;28;20058;-80
2023/08/25 08:20:33;;;;;;;6.72;5.45;;;31.50;74.50;;;;;;4993550;28;20116;-82
2023/08/25 08:23:00;;;;;;;8.35;5.72;;;31.60;74.40;;;;;;4975985;28;20033;-81
2023/08/25 08:25:25;;;;;;;11.48;5.57;;;31.70;74.10;;;;;;4992765;28;20356;-82
2023/08/25 08:27:51;;;;;;;7.25;5.53;;;31.80;73.90;;;;;;4993556;28;20034;-84
2023/08/25 08:30:19;;;;;;;12.10;6.03;;;31.80;73.90;;;;;;4993152;28;20037;-83
2023/08/25 08:32:45;;;;;;;7.88;5.00;;;31.90;73.70;;;;;;4992566;28;20022;-83
2023/08/25 08:35:12;;;;;;;6.70;5.40;;;32.00;73.60;;;;;;4992694;28;20038;-83
2023/08/25 08:37:40;;;;;;;5.82;4.80;;;32.00;73.20;;;;;;4993436;28;20463;-82
2023/08/25 08:40:08;;;;;;;6.72;5.78;;;32.00;73.10;;;;;;4991482;28;20542;-82
2023/08/25 08:42:36;;;;;;;8.27;5.40;;;32.10;73.70;;;;;;4992149;28;20028;-82
2023/08/25 08:45:05;;;;;;;9.45;5.65;;;32.10;73.50;;;;;;4994472;28;20023;-82
2023/08/25 08:47:34;;;;;;;7.53;5.27;;;32.20;73.10;;;;;;5002697;28;20030;-83
2023/08/25 08:50:01;;;;;;;8.68;5.32;;;32.30;73.30;;;;;;4993067;28;20332;-82
2023/08/25 08:52:31;;;;;;;5.78;4.75;;;32.30;73.60;;;;;;4992925;28;20034;-84
2023/08/25 08:54:58;;;;;;;7.80;5.65;;;32.50;74.10;;;;;;4993296;28;20038;-84
2023/08/25 08:57:29;;;;;;;7.45;4.80;;;32.50;73.10;;;;;;4992236;28;20034;-84
2023/08/25 08:59:58;;;;;;;8.95;5.68;;;32.60;73.40;;;;;;4984772;28;20646;-85
2023/08/25 09:02:28;;;;;;;7.60;5.10;;;32.70;73.40;;;;;;4992948;28;20077;-84
2023/08/25 09:04:58;;;;;;;8.57;5.43;;;32.90;72.70;;;;;;4994218;28;20022;-85
2023/08/25 09:07:28;;;;;;;11.05;7.03;;;32.90;72.70;;;;;;4980276;28;20041;-83
2023/08/25 09:09:54;;;;;;;7.05;5.40;;;33.00;72.00;;;;;;4995998;28;20114;-83
2023/08/25 09:12:20;;;;;;;6.50;5.00;;;33.00;72.30;;;;;;4997529;28;20490;-84
2023/08/25 09:14:47;;;;;;;7.20;5.30;;;33.10;72.20;;;;;;5004670;28;20034;-83
2023/08/25 09:17:14;;;;;;;10.07;5.22;;;33.30;72.30;;;;;;5007683;28;20038;-84
2023/08/25 09:19:41;;;;;;;8.45;4.97;;;33.30;71.80;;;;;;4997258;28;20125;-83
2023/08/25 09:22:11;;;;;;;7.32;6.05;;;33.40;71.80;;;;;;4989796;28;20040;-84
2023/08/25 09:24:38;;;;;;;7.95;5.20;;;33.50;70.50;;;;;;4997643;28;20072;-86
2023/08/25 09:27:05;;;;;;;5.78;5.05;;;33.60;71.10;;;;;;4997160;28;20025;-84
2023/08/25 09:29:57;;;;;;;7.05;4.82;;;33.70;70.30;;;;;;4996943;28;20034;-80
2023/08/25 09:32:25;;;;;;;7.30;5.50;;;33.80;69.50;;;;;;4991536;28;20034;-81
2023/08/25 09:34:51;;;;;;;6.20;5.30;;;33.90;69.40;;;;;;4995833;28;20056;-80
2023/08/25 09:37:17;;;;;;;5.15;4.65;;;34.00;68.70;;;;;;4996143;28;20772;-80
2023/08/25 09:39:44;;;;;;;5.82;4.72;;;34.10;68.60;;;;;;4995780;28;20030;-81
2023/08/25 09:42:11;;;;;;;6.57;4.85;;;34.20;67.80;;;;;;4996402;28;20026;-81
2023/08/25 09:44:40;;;;;;;5.53;4.63;;;34.30;66.90;;;;;;4995390;28;20054;-80
2023/08/25 09:47:06;;;;;;;5.43;4.55;;;34.50;66.60;;;;;;4997880;28;20029;-82
2023/08/25 09:49:40;;;;;;;7.13;4.68;;;34.60;66.00;;;;;;4993742;28;20089;-81
2023/08/25 09:52:09;;;;;;;4.78;4.25;;;34.60;65.20;;;;;;4988366;28;20066;-82
2023/08/25 09:54:35;;;;;;;5.50;4.45;;;34.70;64.80;;;;;;4993908;28;20063;-82
2023/08/25 09:57:01;;;;;;;5.00;4.47;;;34.70;64.30;;;;;;4993332;28;20070;-83
2023/08/25 09:59:27;;;;;;;4.93;4.45;;;34.80;64.60;;;;;;4986524;28;20078;-81
2023/08/25 10:01:53;;;;;;;5.30;4.35;;;34.90;64.70;;;;;;4994557;28;20034;-82
2023/08/25 10:04:19;;;;;;;5.90;4.47;;;35.00;64.50;;;;;;4999257;28;20105;-82
2023/08/25 10:06:45;;;;;;;7.28;4.75;;;35.10;64.10;;;;;;4977016;28;20125;-81
2023/08/25 10:09:10;;;;;;;5.18;4.65;;;35.20;63.30;;;;;;4990427;28;20049;-81
2023/08/25 10:11:41;;;;;;;5.57;4.85;;;35.30;63.10;;;;;;4994675;28;20768;-81
2023/08/25 10:14:12;;;;;;;5.43;4.60;;;35.50;62.60;;;;;;4995201;28;20556;-82
2023/08/25 10:16:52;;;;;;;5.90;4.50;;;35.50;62.40;;;;;;5005162;28;20109;-81
2023/08/25 10:19:26;;;;;;;5.80;4.30;;;35.60;61.60;;;;;;4993296;28;20038;-82
2023/08/25 10:21:54;;;;;;;5.43;4.93;;;35.70;61.70;;;;;;5004067;28;20034;-81
2023/08/25 10:24:22;;;;;;;5.00;4.38;;;35.90;61.50;;;;;;4995398;28;20081;-81
2023/08/25 10:26:51;;;;;;;4.97;4.55;;;36.00;60.30;;;;;;4996132;28;20057;-82
2023/08/25 10:29:18;;;;;;;5.22;4.72;;;36.00;60.70;;;;;;4989227;28;20085;-81
2023/08/25 10:31:59;;;;;;;6.00;4.90;;;36.00;60.50;;;;;;4993814;28;20040;-81
2023/08/25 10:34:43;;;;;;;6.15;4.95;;;36.10;61.10;;;;;;4971573;28;20070;-82
2023/08/25 10:37:11;;;;;;;6.55;4.30;;;36.10;60.60;;;;;;4992292;28;20109;-82
2023/08/25 10:39:59;;;;;;;4.72;4.22;;;36.20;60.60;;;;;;5001328;28;20084;-81
2023/08/25 10:42:35;;;;;;;8.32;4.95;;;36.40;59.90;;;;;;4994233;28;20022;-82
2023/08/25 10:45:04;;;;;;;6.57;4.88;;;36.60;60.80;;;;;;4995176;28;20475;-81
2023/08/25 10:47:31;;;;;;;7.82;5.93;;;36.80;61.20;;;;;;4994174;28;20100;-81
2023/08/25 10:50:03;;;;;;;6.72;5.65;;;36.90;61.70;;;;;;4996768;28;20137;-83
2023/08/25 10:52:30;;;;;;;6.63;5.60;;;37.00;61.90;;;;;;4992134;28;20031;-82
2023/08/25 10:54:56;;;;;;;8.65;5.68;;;37.00;62.30;;;;;;4994922;28;20038;-82
2023/08/25 10:57:29;;;;;;;6.25;5.60;;;37.10;61.80;;;;;;4974247;28;20099;-81
2023/08/25 10:59:56;;;;;;;7.57;5.38;;;37.20;61.60;;;;;;4994169;28;20058;-81
2023/08/25 11:02:35;;;;;;;5.75;5.25;;;37.30;61.60;;;;;;4992663;28;20102;-81
2023/08/25 11:05:26;;;;;;;7.50;6.07;;;37.50;61.30;;;;;;4994335;28;20611;-82
2023/08/25 11:07:54;;;;;;;8.05;5.53;;;37.60;61.40;;;;;;4989973;28;20096;-84
2023/08/25 11:10:23;;;;;;;9.57;6.20;;;37.80;62.00;;;;;;4989253;28;20057;-82
2023/08/25 11:12:53;;;;;;;7.30;5.88;;;37.90;62.20;;;;;;4994808;28;20038;-87
2023/08/25 11:15:23;;;;;;;7.05;5.80;;;38.10;62.10;;;;;;4991212;28;20030;-82
2023/08/25 11:17:50;;;;;;;9.50;6.50;;;38.20;61.80;;;;;;4968632;28;20360;-80
2023/08/25 11:20:17;;;;;;;6.65;5.97;;;38.40;61.30;;;;;;4992335;28;20027;-86
2023/08/25 11:23:03;;;;;;;6.85;5.90;;;38.50;61.10;;;;;;4994879;28;20102;-86
2023/08/25 11:25:29;;;;;;;6.43;5.75;;;38.70;60.30;;;;;;4995126;28;20018;-85
2023/08/25 11:27:56;;;;;;;6.30;5.15;;;38.80;59.70;;;;;;4995846;28;20383;-85
2023/08/25 11:30:26;;;;;;;8.10;4.97;;;38.90;58.70;;;;;;4973989;28;20430;-85
2023/08/25 11:32:54;;;;;;;6.03;5.43;;;39.00;57.90;;;;;;4994136;28;20030;-84
2023/08/25 11:35:20;;;;;;;6.53;5.45;;;39.20;56.80;;;;;;4990990;28;20042;-85
2023/08/25 11:37:49;;;;;;;7.38;5.28;;;39.40;56.60;;;;;;4994793;28;20053;-87
2023/08/25 11:40:19;;;;;;;5.70;5.20;;;39.50;56.30;;;;;;4993006;28;20041;-82
2023/08/25 11:42:46;;;;;;;5.82;5.28;;;39.70;55.90;;;;;;4992394;28;20526;-83
2023/08/25 11:45:14;;;;;;;6.05;5.05;;;39.80;56.30;;;;;;4993356;28;20479;-83
2023/08/25 11:47:40;;;;;;;6.93;4.85;;;39.90;56.00;;;;;;4974048;28;20026;-82
2023/08/25 11:50:07;;;;;;;15.48;4.90;;;40.00;55.80;;;;;;4994994;28;20049;-82
2023/08/25 11:52:36;;;;;;;8.57;4.80;;;40.10;55.10;;;;;;4992752;28;20066;-81
2023/08/25 11:55:03;;;;;;;5.45;4.93;;;40.30;53.70;;;;;;4989918;28;20026;-85
2023/08/25 11:57:36;;;;;;;5.07;4.57;;;40.40;52.90;;;;;;5003818;28;20065;-85
2023/08/25 12:00:06;;;;;;;6.18;4.80;;;40.70;52.50;;;;;;5013684;28;20500;-86
2023/08/25 12:02:34;;;;;;;4.75;4.35;;;40.90;51.70;;;;;;4997260;28;20037;-86
2023/08/25 12:05:05;;;;;;;5.20;4.43;;;41.00;51.40;;;;;;4994096;28;20031;-86
2023/08/25 12:07:32;;;;;;;7.35;5.35;;;41.20;51.70;;;;;;4974818;28;20038;-82
2023/08/25 12:10:10;;;;;;;7.18;4.75;;;41.40;51.50;;;;;;4975748;28;20394;-83
2023/08/25 12:13:02;;;;;;;5.13;4.63;;;41.50;50.00;;;;;;4990660;28;20081;-83
2023/08/25 12:15:44;;;;;;;6.10;5.03;;;41.60;49.10;;;;;;4972928;28;20493;-84
2023/08/25 12:18:35;;;;;;;4.55;4.13;;;41.80;49.30;;;;;;4974996;28;20525;-85
2023/08/25 12:21:04;;;;;;;6.30;4.30;;;41.80;48.90;;;;;;4975802;28;20062;-85
2023/08/25 12:23:40;;;;;;;4.27;3.87;;;41.90;49.00;;;;;;4992351;28;20471;-85
2023/08/25 12:26:17;;;;;;;4.35;3.95;;;42.10;47.70;;;;;;4993351;28;20038;-87
2023/08/25 12:28:43;;;;;;;5.63;3.67;;;42.10;47.30;;;;;;4993252;28;20057;-85
2023/08/25 12:31:38;;;;;;;4.30;3.72;;;42.10;45.60;;;;;;4993676;28;20050;-84
2023/08/25 12:34:11;;;;;;;7.30;4.50;;;42.20;45.60;;;;;;4992976;28;20022;-85
2023/08/25 12:36:37;;;;;;;4.53;4.10;;;42.20;45.50;;;;;;4976233;28;20022;-85
2023/08/25 12:39:12;;;;;;;4.90;4.40;;;42.30;46.10;;;;;;4992417;28;20489;-86
2023/08/25 12:41:38;;;;;;;6.15;4.70;;;42.40;45.80;;;;;;4972606;28;20363;-89
2023/08/25 12:44:04;;;;;;;8.10;4.57;;;42.40;45.20;;;;;;4969394;28;22074;-83